sensor_id;sensor_type;location;lat;lon;timestamp;temperature;humidity
65854;DHT22;52627;48.838;2.402;2022-12-18T00:01:27;-2.39;76.38
65854;DHT22;52627;48.838;2.402;2022-12-18T00:03:58;-2.39;76.31
65854;DHT22;52627;48.838;2.402;2022-12-18T00:06:27;-2.40;76.30
65854;DHT22;52627;48.838;2.402;2022-12-18T00:08:57;-2.42;76.30
65854;DHT22;52627;48.838;2.402;2022-12-18T00:11:26;-2.43;76.30
65854;DHT22;52627;48.838;2.402;2022-12-18T00:13:57;-2.40;76.30
65854;DHT22;52627;48.838;2.402;2022-12-18T00:16:25;-2.37;76.30
65854;DHT22;52627;48.838;2.402;2022-12-18T00:18:55;-2.36;76.30
65854;DHT22;52627;48.838;2.402;2022-12-18T00:21:27;-2.35;76.24
65854;DHT22;52627;48.838;2.402;2022-12-18T00:23:56;-2.38;76.21
65854;DHT22;52627;48.838;2.402;2022-12-18T00:26:25;-2.36;76.21
65854;DHT22;52627;48.838;2.402;2022-12-18T00:29:00;-2.34;76.20
65854;DHT22;52627;48.838;2.402;2022-12-18T00:31:31;-2.29;76.16
65854;DHT22;52627;48.838;2.402;2022-12-18T00:34:00;-2.27;76.10
65854;DHT22;52627;48.838;2.402;2022-12-18T00:36:29;-2.25;76.04
65854;DHT22;52627;48.838;2.402;2022-12-18T00:39:03;-2.25;76.00
65854;DHT22;52627;48.838;2.402;2022-12-18T00:41:32;-2.25;75.96
65854;DHT22;52627;48.838;2.402;2022-12-18T00:44:18;-2.26;75.92
65854;DHT22;52627;48.838;2.402;2022-12-18T00:46:47;-2.27;75.92
65854;DHT22;52627;48.838;2.402;2022-12-18T00:49:16;-2.27;75.95
65854;DHT22;52627;48.838;2.402;2022-12-18T00:51:46;-2.27;75.90
65854;DHT22;52627;48.838;2.402;2022-12-18T00:54:14;-2.30;75.91
65854;DHT22;52627;48.838;2.402;2022-12-18T00:56:43;-2.31;75.92
65854;DHT22;52627;48.838;2.402;2022-12-18T00:59:16;-2.35;75.90
65854;DHT22;52627;48.838;2.402;2022-12-18T01:01:45;-2.39;75.90
65854;DHT22;52627;48.838;2.402;2022-12-18T01:04:13;-2.41;75.90
65854;DHT22;52627;48.838;2.402;2022-12-18T01:06:42;-2.43;75.90
65854;DHT22;52627;48.838;2.402;2022-12-18T01:09:10;-2.45;75.86
65854;DHT22;52627;48.838;2.402;2022-12-18T01:11:38;-2.46;75.87
65854;DHT22;52627;48.838;2.402;2022-12-18T01:14:05;-2.48;75.80
65854;DHT22;52627;48.838;2.402;2022-12-18T01:16:33;-2.49;75.80
65854;DHT22;52627;48.838;2.402;2022-12-18T01:19:01;-2.52;75.80
65854;DHT22;52627;48.838;2.402;2022-12-18T01:21:28;-2.52;75.80
65854;DHT22;52627;48.838;2.402;2022-12-18T01:23:56;-2.52;75.78
65854;DHT22;52627;48.838;2.402;2022-12-18T01:26:24;-2.51;75.71
65854;DHT22;52627;48.838;2.402;2022-12-18T01:28:53;-2.52;75.70
65854;DHT22;52627;48.838;2.402;2022-12-18T01:31:24;-2.52;75.70
65854;DHT22;52627;48.838;2.402;2022-12-18T01:33:57;-2.48;75.69
65854;DHT22;52627;48.838;2.402;2022-12-18T01:36:28;-2.46;75.63
65854;DHT22;52627;48.838;2.402;2022-12-18T01:39:03;-2.44;75.61
65854;DHT22;52627;48.838;2.402;2022-12-18T01:41:34;-2.41;75.60
65854;DHT22;52627;48.838;2.402;2022-12-18T01:47:20;-2.37;75.56
65854;DHT22;52627;48.838;2.402;2022-12-18T01:50:08;-2.39;75.51
65854;DHT22;52627;48.838;2.402;2022-12-18T01:52:45;-2.39;75.50
65854;DHT22;52627;48.838;2.402;2022-12-18T01:55:18;-2.38;75.50
65854;DHT22;52627;48.838;2.402;2022-12-18T01:57:48;-2.36;75.50
65854;DHT22;52627;48.838;2.402;2022-12-18T02:00:20;-2.35;75.49
65854;DHT22;52627;48.838;2.402;2022-12-18T02:02:49;-2.34;75.43
65854;DHT22;52627;48.838;2.402;2022-12-18T02:05:52;-2.35;75.40
65854;DHT22;52627;48.838;2.402;2022-12-18T02:08:33;-2.37;75.38
65854;DHT22;52627;48.838;2.402;2022-12-18T02:17:18;-2.47;75.30
65854;DHT22;52627;48.838;2.402;2022-12-18T02:19:58;-2.48;75.30
65854;DHT22;52627;48.838;2.402;2022-12-18T02:23:28;-2.48;75.30
65854;DHT22;52627;48.838;2.402;2022-12-18T02:28:35;-2.49;75.30
65854;DHT22;52627;48.838;2.402;2022-12-18T02:31:11;-2.51;75.30
65854;DHT22;52627;48.838;2.402;2022-12-18T02:33:43;-2.50;75.30
65854;DHT22;52627;48.838;2.402;2022-12-18T02:36:13;-2.51;75.30
65854;DHT22;52627;48.838;2.402;2022-12-18T02:38:43;-2.53;75.29
65854;DHT22;52627;48.838;2.402;2022-12-18T02:41:13;-2.54;75.29
65854;DHT22;52627;48.838;2.402;2022-12-18T02:43:46;-2.54;75.30
65854;DHT22;52627;48.838;2.402;2022-12-18T02:46:27;-2.54;75.30
65854;DHT22;52627;48.838;2.402;2022-12-18T02:54:42;-2.61;75.30
65854;DHT22;52627;48.838;2.402;2022-12-18T02:57:25;-2.65;75.30
65854;DHT22;52627;48.838;2.402;2022-12-18T03:00:23;-2.69;75.39
65854;DHT22;52627;48.838;2.402;2022-12-18T03:02:59;-2.69;75.40
65854;DHT22;52627;48.838;2.402;2022-12-18T03:05:55;-2.67;75.40
65854;DHT22;52627;48.838;2.402;2022-12-18T03:08:29;-2.67;75.40
65854;DHT22;52627;48.838;2.402;2022-12-18T03:11:06;-2.69;75.40
65854;DHT22;52627;48.838;2.402;2022-12-18T03:13:39;-2.72;75.47
65854;DHT22;52627;48.838;2.402;2022-12-18T03:16:14;-2.75;75.50
65854;DHT22;52627;48.838;2.402;2022-12-18T03:18:48;-2.78;75.52
65854;DHT22;52627;48.838;2.402;2022-12-18T03:21:26;-2.83;75.58
65854;DHT22;52627;48.838;2.402;2022-12-18T03:24:10;-2.88;75.66
65854;DHT22;52627;48.838;2.402;2022-12-18T03:26:40;-2.90;75.69
65854;DHT22;52627;48.838;2.402;2022-12-18T03:29:12;-2.90;75.70
65854;DHT22;52627;48.838;2.402;2022-12-18T03:31:47;-2.89;75.70
65854;DHT22;52627;48.838;2.402;2022-12-18T03:34:24;-2.89;75.74
65854;DHT22;52627;48.838;2.402;2022-12-18T03:36:58;-2.88;75.75
65854;DHT22;52627;48.838;2.402;2022-12-18T03:39:25;-2.83;75.76
65854;DHT22;52627;48.838;2.402;2022-12-18T03:44:26;-2.79;75.80
65854;DHT22;52627;48.838;2.402;2022-12-18T03:47:06;-2.78;75.80
65854;DHT22;52627;48.838;2.402;2022-12-18T03:52:45;-2.75;75.80
65854;DHT22;52627;48.838;2.402;2022-12-18T03:55:18;-2.74;75.80
65854;DHT22;52627;48.838;2.402;2022-12-18T03:57:48;-2.73;75.82
65854;DHT22;52627;48.838;2.402;2022-12-18T04:00:17;-2.74;75.84
65854;DHT22;52627;48.838;2.402;2022-12-18T04:02:48;-2.72;75.85
65854;DHT22;52627;48.838;2.402;2022-12-18T04:05:19;-2.72;75.90
65854;DHT22;52627;48.838;2.402;2022-12-18T04:07:48;-2.74;75.90
65854;DHT22;52627;48.838;2.402;2022-12-18T04:10:19;-2.75;75.90
65854;DHT22;52627;48.838;2.402;2022-12-18T04:12:46;-2.77;75.94
65854;DHT22;52627;48.838;2.402;2022-12-18T04:15:14;-2.77;75.99
65854;DHT22;52627;48.838;2.402;2022-12-18T04:17:51;-2.78;76.00
65854;DHT22;52627;48.838;2.402;2022-12-18T04:20:18;-2.77;76.01
65854;DHT22;52627;48.838;2.402;2022-12-18T04:22:46;-2.77;76.09
65854;DHT22;52627;48.838;2.402;2022-12-18T04:25:14;-2.77;76.10
65854;DHT22;52627;48.838;2.402;2022-12-18T04:27:42;-2.76;76.10
65854;DHT22;52627;48.838;2.402;2022-12-18T04:30:09;-2.77;76.10
65854;DHT22;52627;48.838;2.402;2022-12-18T04:32:37;-2.76;76.10
65854;DHT22;52627;48.838;2.402;2022-12-18T04:35:05;-2.75;76.11
65854;DHT22;52627;48.838;2.402;2022-12-18T04:37:37;-2.73;76.12
65854;DHT22;52627;48.838;2.402;2022-12-18T04:40:05;-2.73;76.17
65854;DHT22;52627;48.838;2.402;2022-12-18T04:42:33;-2.73;76.20
65854;DHT22;52627;48.838;2.402;2022-12-18T04:45:00;-2.72;76.20
65854;DHT22;52627;48.838;2.402;2022-12-18T04:47:27;-2.71;76.20
65854;DHT22;52627;48.838;2.402;2022-12-18T04:49:55;-2.70;76.22
65854;DHT22;52627;48.838;2.402;2022-12-18T04:52:22;-2.70;76.28
65854;DHT22;52627;48.838;2.402;2022-12-18T04:54:50;-2.71;76.28
65854;DHT22;52627;48.838;2.402;2022-12-18T04:57:18;-2.73;76.30
65854;DHT22;52627;48.838;2.402;2022-12-18T04:59:45;-2.75;76.30
65854;DHT22;52627;48.838;2.402;2022-12-18T05:02:13;-2.74;76.30
65854;DHT22;52627;48.838;2.402;2022-12-18T05:04:40;-2.71;76.30
65854;DHT22;52627;48.838;2.402;2022-12-18T05:07:07;-2.69;76.30
65854;DHT22;52627;48.838;2.402;2022-12-18T05:09:35;-2.64;76.30
65854;DHT22;52627;48.838;2.402;2022-12-18T05:12:02;-2.62;76.30
65854;DHT22;52627;48.838;2.402;2022-12-18T05:14:30;-2.60;76.30
65854;DHT22;52627;48.838;2.402;2022-12-18T05:16:57;-2.59;76.30
65854;DHT22;52627;48.838;2.402;2022-12-18T05:19:27;-2.59;76.30
65854;DHT22;52627;48.838;2.402;2022-12-18T05:21:54;-2.59;76.30
65854;DHT22;52627;48.838;2.402;2022-12-18T05:24:22;-2.61;76.30
65854;DHT22;52627;48.838;2.402;2022-12-18T05:26:49;-2.63;76.30
65854;DHT22;52627;48.838;2.402;2022-12-18T05:29:17;-2.63;76.30
65854;DHT22;52627;48.838;2.402;2022-12-18T05:31:44;-2.63;76.33
65854;DHT22;52627;48.838;2.402;2022-12-18T05:34:12;-2.63;76.32
65854;DHT22;52627;48.838;2.402;2022-12-18T05:36:40;-2.63;76.32
65854;DHT22;52627;48.838;2.402;2022-12-18T05:39:08;-2.65;76.33
65854;DHT22;52627;48.838;2.402;2022-12-18T05:41:36;-2.67;76.38
65854;DHT22;52627;48.838;2.402;2022-12-18T05:44:03;-2.68;76.40
65854;DHT22;52627;48.838;2.402;2022-12-18T05:46:31;-2.69;76.40
65854;DHT22;52627;48.838;2.402;2022-12-18T05:48:59;-2.70;76.42
65854;DHT22;52627;48.838;2.402;2022-12-18T05:51:28;-2.70;76.46
65854;DHT22;52627;48.838;2.402;2022-12-18T05:53:55;-2.68;76.47
65854;DHT22;52627;48.838;2.402;2022-12-18T05:56:23;-2.68;76.44
65854;DHT22;52627;48.838;2.402;2022-12-18T05:58:51;-2.69;76.43
65854;DHT22;52627;48.838;2.402;2022-12-18T06:01:24;-2.69;76.49
65854;DHT22;52627;48.838;2.402;2022-12-18T06:03:53;-2.69;76.50
65854;DHT22;52627;48.838;2.402;2022-12-18T06:06:23;-2.70;76.50
65854;DHT22;52627;48.838;2.402;2022-12-18T06:08:54;-2.68;76.49
65854;DHT22;52627;48.838;2.402;2022-12-18T06:11:23;-2.65;76.49
65854;DHT22;52627;48.838;2.402;2022-12-18T06:13:53;-2.63;76.48
65854;DHT22;52627;48.838;2.402;2022-12-18T06:16:26;-2.63;76.44
65854;DHT22;52627;48.838;2.402;2022-12-18T06:19:01;-2.62;76.41
65854;DHT22;52627;48.838;2.402;2022-12-18T06:21:31;-2.64;76.41
65854;DHT22;52627;48.838;2.402;2022-12-18T06:23:59;-2.64;76.41
65854;DHT22;52627;48.838;2.402;2022-12-18T06:26:27;-2.65;76.40
65854;DHT22;52627;48.838;2.402;2022-12-18T06:28:54;-2.67;76.40
65854;DHT22;52627;48.838;2.402;2022-12-18T06:31:22;-2.65;76.42
65854;DHT22;52627;48.838;2.402;2022-12-18T06:33:50;-2.67;76.43
65854;DHT22;52627;48.838;2.402;2022-12-18T06:36:17;-2.67;76.41
65854;DHT22;52627;48.838;2.402;2022-12-18T06:38:45;-2.69;76.42
65854;DHT22;52627;48.838;2.402;2022-12-18T06:41:15;-2.71;76.44
65854;DHT22;52627;48.838;2.402;2022-12-18T06:43:46;-2.72;76.50
65854;DHT22;52627;48.838;2.402;2022-12-18T06:46:13;-2.74;76.50
65854;DHT22;52627;48.838;2.402;2022-12-18T06:48:41;-2.76;76.50
65854;DHT22;52627;48.838;2.402;2022-12-18T06:51:08;-2.76;76.50
65854;DHT22;52627;48.838;2.402;2022-12-18T06:53:36;-2.77;76.50
65854;DHT22;52627;48.838;2.402;2022-12-18T06:56:05;-2.77;76.51
65854;DHT22;52627;48.838;2.402;2022-12-18T06:58:37;-2.75;76.50
65854;DHT22;52627;48.838;2.402;2022-12-18T07:01:07;-2.74;76.51
65854;DHT22;52627;48.838;2.402;2022-12-18T07:03:38;-2.73;76.50
65854;DHT22;52627;48.838;2.402;2022-12-18T07:06:14;-2.74;76.49
65854;DHT22;52627;48.838;2.402;2022-12-18T07:08:45;-2.74;76.49
65854;DHT22;52627;48.838;2.402;2022-12-18T07:11:14;-2.74;76.50
65854;DHT22;52627;48.838;2.402;2022-12-18T07:13:43;-2.77;76.49
65854;DHT22;52627;48.838;2.402;2022-12-18T07:16:13;-2.79;76.50
65854;DHT22;52627;48.838;2.402;2022-12-18T07:18:52;-2.81;76.50
65854;DHT22;52627;48.838;2.402;2022-12-18T07:21:21;-2.82;76.50
65854;DHT22;52627;48.838;2.402;2022-12-18T07:23:51;-2.82;76.50
65854;DHT22;52627;48.838;2.402;2022-12-18T07:26:19;-2.81;76.49
65854;DHT22;52627;48.838;2.402;2022-12-18T07:28:48;-2.82;76.48
65854;DHT22;52627;48.838;2.402;2022-12-18T07:31:18;-2.85;76.50
65854;DHT22;52627;48.838;2.402;2022-12-18T07:33:48;-2.84;76.50
65854;DHT22;52627;48.838;2.402;2022-12-18T07:36:18;-2.87;76.50
65854;DHT22;52627;48.838;2.402;2022-12-18T07:38:46;-2.88;76.50
65854;DHT22;52627;48.838;2.402;2022-12-18T07:41:15;-2.88;76.50
65854;DHT22;52627;48.838;2.402;2022-12-18T07:43:43;-2.86;76.51
65854;DHT22;52627;48.838;2.402;2022-12-18T07:46:11;-2.85;76.50
65854;DHT22;52627;48.838;2.402;2022-12-18T07:48:43;-2.83;76.50
65854;DHT22;52627;48.838;2.402;2022-12-18T07:51:16;-2.83;76.50
65854;DHT22;52627;48.838;2.402;2022-12-18T07:53:45;-2.83;76.49
65854;DHT22;52627;48.838;2.402;2022-12-18T07:56:18;-2.85;76.48
65854;DHT22;52627;48.838;2.402;2022-12-18T07:58:56;-2.85;76.50
65854;DHT22;52627;48.838;2.402;2022-12-18T08:01:24;-2.84;76.50
65854;DHT22;52627;48.838;2.402;2022-12-18T08:03:52;-2.84;76.50
65854;DHT22;52627;48.838;2.402;2022-12-18T08:06:20;-2.85;76.50
65854;DHT22;52627;48.838;2.402;2022-12-18T08:08:53;-2.83;76.50
65854;DHT22;52627;48.838;2.402;2022-12-18T08:11:22;-2.81;76.49
65854;DHT22;52627;48.838;2.402;2022-12-18T08:13:52;-2.82;76.49
65854;DHT22;52627;48.838;2.402;2022-12-18T08:16:20;-2.81;76.50
65854;DHT22;52627;48.838;2.402;2022-12-18T08:18:51;-2.79;76.42
65854;DHT22;52627;48.838;2.402;2022-12-18T08:21:21;-2.81;76.40
65854;DHT22;52627;48.838;2.402;2022-12-18T08:23:54;-2.82;76.40
65854;DHT22;52627;48.838;2.402;2022-12-18T08:26:24;-2.80;76.40
65854;DHT22;52627;48.838;2.402;2022-12-18T08:28:55;-2.77;76.40
65854;DHT22;52627;48.838;2.402;2022-12-18T08:31:25;-2.75;76.39
65854;DHT22;52627;48.838;2.402;2022-12-18T08:33:54;-2.71;76.37
65854;DHT22;52627;48.838;2.402;2022-12-18T08:36:23;-2.68;76.37
65854;DHT22;52627;48.838;2.402;2022-12-18T08:38:53;-2.62;76.37
65854;DHT22;52627;48.838;2.402;2022-12-18T08:41:20;-2.55;76.30
65854;DHT22;52627;48.838;2.402;2022-12-18T08:43:48;-2.50;76.21
65854;DHT22;52627;48.838;2.402;2022-12-18T08:46:39;-2.52;76.09
65854;DHT22;52627;48.838;2.402;2022-12-18T08:49:09;-2.53;76.03
65854;DHT22;52627;48.838;2.402;2022-12-18T08:51:38;-2.53;76.04
65854;DHT22;52627;48.838;2.402;2022-12-18T08:54:06;-2.53;76.00
65854;DHT22;52627;48.838;2.402;2022-12-18T08:56:34;-2.53;75.99
65854;DHT22;52627;48.838;2.402;2022-12-18T08:59:02;-2.53;75.96
65854;DHT22;52627;48.838;2.402;2022-12-18T09:01:30;-2.51;75.94
65854;DHT22;52627;48.838;2.402;2022-12-18T09:03:58;-2.50;75.90
65854;DHT22;52627;48.838;2.402;2022-12-18T09:06:25;-2.47;75.92
65854;DHT22;52627;48.838;2.402;2022-12-18T09:08:53;-2.46;75.90
65854;DHT22;52627;48.838;2.402;2022-12-18T09:11:25;-2.42;75.90
65854;DHT22;52627;48.838;2.402;2022-12-18T09:13:55;-2.39;75.90
65854;DHT22;52627;48.838;2.402;2022-12-18T09:16:25;-2.37;75.86
65854;DHT22;52627;48.838;2.402;2022-12-18T09:18:58;-2.36;75.82
65854;DHT22;52627;48.838;2.402;2022-12-18T09:21:28;-2.30;75.81
65854;DHT22;52627;48.838;2.402;2022-12-18T09:24:03;-2.24;75.74
65854;DHT22;52627;48.838;2.402;2022-12-18T09:26:35;-2.22;75.63
65854;DHT22;52627;48.838;2.402;2022-12-18T09:29:03;-2.21;75.60
65854;DHT22;52627;48.838;2.402;2022-12-18T09:31:31;-2.16;75.62
65854;DHT22;52627;48.838;2.402;2022-12-18T09:33:58;-2.12;75.51
65854;DHT22;52627;48.838;2.402;2022-12-18T09:36:26;-2.09;75.50
65854;DHT22;52627;48.838;2.402;2022-12-18T09:38:53;-2.05;75.50
65854;DHT22;52627;48.838;2.402;2022-12-18T09:44:15;-1.96;75.36
65854;DHT22;52627;48.838;2.402;2022-12-18T09:50:04;-1.89;75.28
65854;DHT22;52627;48.838;2.402;2022-12-18T09:52:49;-1.85;75.20
65854;DHT22;52627;48.838;2.402;2022-12-18T09:55:29;-1.80;75.20
65854;DHT22;52627;48.838;2.402;2022-12-18T09:58:11;-1.73;75.20
65854;DHT22;52627;48.838;2.402;2022-12-18T10:00:43;-1.66;75.11
65854;DHT22;52627;48.838;2.402;2022-12-18T10:03:12;-1.62;75.02
65854;DHT22;52627;48.838;2.402;2022-12-18T10:14:05;-1.41;74.77
65854;DHT22;52627;48.838;2.402;2022-12-18T10:17:42;-1.40;74.66
65854;DHT22;52627;48.838;2.402;2022-12-18T10:20:35;-1.33;74.69
65854;DHT22;52627;48.838;2.402;2022-12-18T10:25:55;-1.15;74.61
65854;DHT22;52627;48.838;2.402;2022-12-18T10:28:31;-1.05;74.52
65854;DHT22;52627;48.838;2.402;2022-12-18T10:31:17;-0.96;74.36
65854;DHT22;52627;48.838;2.402;2022-12-18T10:33:51;-0.95;74.15
65854;DHT22;52627;48.838;2.402;2022-12-18T10:36:23;-0.89;74.19
65854;DHT22;52627;48.838;2.402;2022-12-18T10:38:51;-0.82;74.02
65854;DHT22;52627;48.838;2.402;2022-12-18T10:43:50;-0.73;73.77
65854;DHT22;52627;48.838;2.402;2022-12-18T10:46:50;-0.66;73.81
65854;DHT22;52627;48.838;2.402;2022-12-18T10:49:26;-0.57;73.74
65854;DHT22;52627;48.838;2.402;2022-12-18T10:54:50;-0.46;73.56
65854;DHT22;52627;48.838;2.402;2022-12-18T10:57:29;-0.43;73.49
65854;DHT22;52627;48.838;2.402;2022-12-18T11:03:02;-0.26;73.48
65854;DHT22;52627;48.838;2.402;2022-12-18T11:05:36;-0.15;73.50
65854;DHT22;52627;48.838;2.402;2022-12-18T11:08:03;-0.04;73.46
65854;DHT22;52627;48.838;2.402;2022-12-18T11:10:32;0.01;73.26
65854;DHT22;52627;48.838;2.402;2022-12-18T11:13:21;0.05;73.24
65854;DHT22;52627;48.838;2.402;2022-12-18T11:15:51;0.12;73.12
65854;DHT22;52627;48.838;2.402;2022-12-18T11:18:30;0.16;73.09
65854;DHT22;52627;48.838;2.402;2022-12-18T11:23:36;0.27;73.00
65854;DHT22;52627;48.838;2.402;2022-12-18T11:26:15;0.32;72.92
65854;DHT22;52627;48.838;2.402;2022-12-18T11:31:17;0.27;72.52
65854;DHT22;52627;48.838;2.402;2022-12-18T11:36:51;0.24;72.50
65854;DHT22;52627;48.838;2.402;2022-12-18T11:45:29;0.38;72.34
65854;DHT22;52627;48.838;2.402;2022-12-18T11:48:09;0.44;72.40
65854;DHT22;52627;48.838;2.402;2022-12-18T11:50:49;0.48;72.23
65854;DHT22;52627;48.838;2.402;2022-12-18T11:53:22;0.45;71.95
65854;DHT22;52627;48.838;2.402;2022-12-18T12:05:34;0.48;72.00
65854;DHT22;52627;48.838;2.402;2022-12-18T12:27:51;0.79;71.40
65854;DHT22;52627;48.838;2.402;2022-12-18T12:39:37;0.96;71.22
65854;DHT22;52627;48.838;2.402;2022-12-18T12:42:51;0.98;71.14
65854;DHT22;52627;48.838;2.402;2022-12-18T12:45:30;1.01;71.10
65854;DHT22;52627;48.838;2.402;2022-12-18T12:48:16;1.06;71.02
65854;DHT22;52627;48.838;2.402;2022-12-18T12:50:52;1.10;71.00
65854;DHT22;52627;48.838;2.402;2022-12-18T12:53:23;1.14;70.98
65854;DHT22;52627;48.838;2.402;2022-12-18T12:55:56;1.20;70.93
65854;DHT22;52627;48.838;2.402;2022-12-18T12:58:34;1.23;70.88
65854;DHT22;52627;48.838;2.402;2022-12-18T13:01:22;1.27;70.80
65854;DHT22;52627;48.838;2.402;2022-12-18T13:07:09;1.30;70.70
65854;DHT22;52627;48.838;2.402;2022-12-18T13:12:57;1.34;70.60
65854;DHT22;52627;48.838;2.402;2022-12-18T13:16:03;1.36;70.61
65854;DHT22;52627;48.838;2.402;2022-12-18T13:18:34;1.39;70.62
65854;DHT22;52627;48.838;2.402;2022-12-18T13:21:36;1.41;70.65
65854;DHT22;52627;48.838;2.402;2022-12-18T13:26:53;1.45;70.54
65854;DHT22;52627;48.838;2.402;2022-12-18T13:29:40;1.42;70.50
65854;DHT22;52627;48.838;2.402;2022-12-18T13:32:19;1.41;70.50
65854;DHT22;52627;48.838;2.402;2022-12-18T13:35:37;1.42;70.53
65854;DHT22;52627;48.838;2.402;2022-12-18T13:37:57;1.43;70.50
65854;DHT22;52627;48.838;2.402;2022-12-18T13:45:48;1.51;70.60
65854;DHT22;52627;48.838;2.402;2022-12-18T13:48:52;1.57;70.64
65854;DHT22;52627;48.838;2.402;2022-12-18T13:51:23;1.63;70.62
65854;DHT22;52627;48.838;2.402;2022-12-18T13:57:30;1.71;70.60
65854;DHT22;52627;48.838;2.402;2022-12-18T14:00:43;1.74;70.55
65854;DHT22;52627;48.838;2.402;2022-12-18T14:02:58;1.76;70.51
65854;DHT22;52627;48.838;2.402;2022-12-18T14:05:28;1.77;70.55
65854;DHT22;52627;48.838;2.402;2022-12-18T14:08:00;1.81;70.58
65854;DHT22;52627;48.838;2.402;2022-12-18T14:10:32;1.85;70.60
65854;DHT22;52627;48.838;2.402;2022-12-18T14:13:17;1.89;70.59
65854;DHT22;52627;48.838;2.402;2022-12-18T14:16:00;1.92;70.50
65854;DHT22;52627;48.838;2.402;2022-12-18T14:21:06;1.97;70.50
65854;DHT22;52627;48.838;2.402;2022-12-18T14:23:48;2.00;70.50
65854;DHT22;52627;48.838;2.402;2022-12-18T14:26:25;2.02;70.51
65854;DHT22;52627;48.838;2.402;2022-12-18T14:28:56;2.06;70.55
65854;DHT22;52627;48.838;2.402;2022-12-18T14:31:29;2.07;70.57
65854;DHT22;52627;48.838;2.402;2022-12-18T14:33:58;2.08;70.60
65854;DHT22;52627;48.838;2.402;2022-12-18T14:36:27;2.10;70.61
65854;DHT22;52627;48.838;2.402;2022-12-18T14:38:56;2.09;70.65
65854;DHT22;52627;48.838;2.402;2022-12-18T14:41:26;2.09;70.70
65854;DHT22;52627;48.838;2.402;2022-12-18T14:43:56;2.10;70.73
65854;DHT22;52627;48.838;2.402;2022-12-18T14:46:36;2.11;70.78
65854;DHT22;52627;48.838;2.402;2022-12-18T14:51:57;2.12;70.81
65854;DHT22;52627;48.838;2.402;2022-12-18T14:54:27;2.14;70.84
65854;DHT22;52627;48.838;2.402;2022-12-18T14:56:59;2.16;70.86
65854;DHT22;52627;48.838;2.402;2022-12-18T14:59:30;2.18;70.90
65854;DHT22;52627;48.838;2.402;2022-12-18T15:04:47;2.21;70.90
65854;DHT22;52627;48.838;2.402;2022-12-18T15:07:50;2.24;70.95
65854;DHT22;52627;48.838;2.402;2022-12-18T15:18:00;2.33;71.05
65854;DHT22;52627;48.838;2.402;2022-12-18T15:20:44;2.36;71.10
65854;DHT22;52627;48.838;2.402;2022-12-18T15:23:24;2.39;71.10
65854;DHT22;52627;48.838;2.402;2022-12-18T15:26:06;2.42;71.10
65854;DHT22;52627;48.838;2.402;2022-12-18T15:28:36;2.43;71.09
65854;DHT22;52627;48.838;2.402;2022-12-18T15:33:41;2.48;71.10
65854;DHT22;52627;48.838;2.402;2022-12-18T15:36:30;2.51;71.10
65854;DHT22;52627;48.838;2.402;2022-12-18T15:38:58;2.52;71.11
65854;DHT22;52627;48.838;2.402;2022-12-18T15:41:33;2.55;71.12
65854;DHT22;52627;48.838;2.402;2022-12-18T15:44:03;2.56;71.17
65854;DHT22;52627;48.838;2.402;2022-12-18T15:46:50;2.59;71.19
65854;DHT22;52627;48.838;2.402;2022-12-18T15:49:17;2.61;71.20
65854;DHT22;52627;48.838;2.402;2022-12-18T15:51:45;2.62;71.20
65854;DHT22;52627;48.838;2.402;2022-12-18T15:54:24;2.63;71.19
65854;DHT22;52627;48.838;2.402;2022-12-18T15:57:10;2.65;71.20
65854;DHT22;52627;48.838;2.402;2022-12-18T15:59:51;2.66;71.19
65854;DHT22;52627;48.838;2.402;2022-12-18T16:02:23;2.67;71.20
65854;DHT22;52627;48.838;2.402;2022-12-18T16:04:51;2.69;71.17
65854;DHT22;52627;48.838;2.402;2022-12-18T16:07:20;2.71;71.18
65854;DHT22;52627;48.838;2.402;2022-12-18T16:09:51;2.73;71.14
65854;DHT22;52627;48.838;2.402;2022-12-18T16:12:20;2.74;71.10
65854;DHT22;52627;48.838;2.402;2022-12-18T16:14:49;2.77;71.10
65854;DHT22;52627;48.838;2.402;2022-12-18T16:17:17;2.78;71.16
65854;DHT22;52627;48.838;2.402;2022-12-18T16:19:45;2.81;71.23
65854;DHT22;52627;48.838;2.402;2022-12-18T16:22:15;2.83;71.30
65854;DHT22;52627;48.838;2.402;2022-12-18T16:24:54;2.84;71.36
65854;DHT22;52627;48.838;2.402;2022-12-18T16:27:23;2.86;71.44
65854;DHT22;52627;48.838;2.402;2022-12-18T16:29:51;2.88;71.50
65854;DHT22;52627;48.838;2.402;2022-12-18T16:32:19;2.90;71.58
65854;DHT22;52627;48.838;2.402;2022-12-18T16:34:49;2.93;71.60
65854;DHT22;52627;48.838;2.402;2022-12-18T16:37:16;2.95;71.64
65854;DHT22;52627;48.838;2.402;2022-12-18T16:39:44;2.96;71.70
65854;DHT22;52627;48.838;2.402;2022-12-18T16:42:13;2.98;71.79
65854;DHT22;52627;48.838;2.402;2022-12-18T16:44:47;3.00;71.81
65854;DHT22;52627;48.838;2.402;2022-12-18T16:47:16;3.02;71.90
65854;DHT22;52627;48.838;2.402;2022-12-18T16:49:44;3.04;71.91
65854;DHT22;52627;48.838;2.402;2022-12-18T16:52:12;3.05;72.01
65854;DHT22;52627;48.838;2.402;2022-12-18T16:54:40;3.05;72.09
65854;DHT22;52627;48.838;2.402;2022-12-18T16:57:08;3.06;72.16
65854;DHT22;52627;48.838;2.402;2022-12-18T16:59:41;3.07;72.20
65854;DHT22;52627;48.838;2.402;2022-12-18T17:02:15;3.08;72.27
65854;DHT22;52627;48.838;2.402;2022-12-18T17:04:51;3.09;72.34
65854;DHT22;52627;48.838;2.402;2022-12-18T17:07:23;3.08;72.42
65854;DHT22;52627;48.838;2.402;2022-12-18T17:09:51;3.07;72.51
65854;DHT22;52627;48.838;2.402;2022-12-18T17:12:20;3.06;72.60
65854;DHT22;52627;48.838;2.402;2022-12-18T17:14:48;3.05;72.69
65854;DHT22;52627;48.838;2.402;2022-12-18T17:17:16;3.05;72.78
65854;DHT22;52627;48.838;2.402;2022-12-18T17:19:49;3.06;72.84
65854;DHT22;52627;48.838;2.402;2022-12-18T17:22:18;3.06;72.89
65854;DHT22;52627;48.838;2.402;2022-12-18T17:24:47;3.07;72.98
65854;DHT22;52627;48.838;2.402;2022-12-18T17:27:15;3.08;73.08
65854;DHT22;52627;48.838;2.402;2022-12-18T17:29:42;3.08;73.17
65854;DHT22;52627;48.838;2.402;2022-12-18T17:32:14;3.10;73.26
65854;DHT22;52627;48.838;2.402;2022-12-18T17:34:43;3.10;73.37
65854;DHT22;52627;48.838;2.402;2022-12-18T17:37:10;3.10;73.50
65854;DHT22;52627;48.838;2.402;2022-12-18T17:39:38;3.12;73.65
65854;DHT22;52627;48.838;2.402;2022-12-18T17:42:06;3.12;73.80
65854;DHT22;52627;48.838;2.402;2022-12-18T17:44:41;3.14;73.94
65854;DHT22;52627;48.838;2.402;2022-12-18T17:47:09;3.14;74.09
65854;DHT22;52627;48.838;2.402;2022-12-18T17:49:39;3.15;74.20
65854;DHT22;52627;48.838;2.402;2022-12-18T17:52:06;3.16;74.41
65854;DHT22;52627;48.838;2.402;2022-12-18T17:54:34;3.15;74.58
65854;DHT22;52627;48.838;2.402;2022-12-18T17:57:06;3.16;74.67
65854;DHT22;52627;48.838;2.402;2022-12-18T17:59:34;3.17;74.80
65854;DHT22;52627;48.838;2.402;2022-12-18T18:02:02;3.18;74.88
65854;DHT22;52627;48.838;2.402;2022-12-18T18:04:30;3.17;74.93
65854;DHT22;52627;48.838;2.402;2022-12-18T18:06:58;3.21;75.08
65854;DHT22;52627;48.838;2.402;2022-12-18T18:09:25;3.22;75.18
65854;DHT22;52627;48.838;2.402;2022-12-18T18:11:53;3.24;75.26
65854;DHT22;52627;48.838;2.402;2022-12-18T18:14:39;3.27;75.41
65854;DHT22;52627;48.838;2.402;2022-12-18T18:17:06;3.28;75.46
65854;DHT22;52627;48.838;2.402;2022-12-18T18:19:34;3.30;75.56
65854;DHT22;52627;48.838;2.402;2022-12-18T18:22:02;3.32;75.59
65854;DHT22;52627;48.838;2.402;2022-12-18T18:24:30;3.35;75.68
65854;DHT22;52627;48.838;2.402;2022-12-18T18:26:59;3.37;75.71
65854;DHT22;52627;48.838;2.402;2022-12-18T18:29:27;3.40;75.77